KMTJ/MTJ METAR and TAF weather

Enter ICAO airport designator
Station Type Date Time Source
KMTJ METAR 2021/09/25 11:53 UTC NOAA

KMTJ 251153Z AUTO 14007KT 10SM CLR 08/M02 A3026 RMK AO2 SLP181 T00831017 10139 20078 53004


Station Type Date Time Source
KMTJ Decoded METAR 2021/09/25 11:53 UTC NOAA

MONTROSE REGIONAL AIRPORT, CO, United States (KMTJ) 38-30N 107-54W 1750M
Sep 25, 2021 - 07:53 AM EDT / 2021.09.25 1153 UTC
Wind: from the SE (140 degrees) at 8 MPH (7 KT):0
Visibility: 10 mile(s):0
Sky conditions: clear
Temperature: 46.9 F (8.3 C)
Dew Point: 28.9 F (-1.7 C)
Relative Humidity: 49%
Pressure (altimeter): 30.26 in. Hg (1024 hPa)
Pressure tendency: 0.01 inches (0.4 hPa) higher than three hours ago
ob: KMTJ 251153Z AUTO 14007KT 10SM CLR 08/M02 A3026 RMK AO2 SLP181 T00831017 10139 20078 53004
cycle: 12

Station Type Date Time Source
KMTJ TAF 2021/09/25 12:28 UTC NOAA

TAF KMTJ 251126Z 2512/2612 14008KT P6SM SKC
FM251800 28010G20KT P6SM SKC
FM260100 18012KT P6SM SKC
FM260300 15008KT P6SM SKC

Example: see airport list